createdAt,value
2023-05-07T00:00:13.258Z,1.45
2023-05-07T00:02:42.785Z,1.73
2023-05-07T00:05:12.348Z,1.50
2023-05-07T00:07:43.296Z,1.70
2023-05-07T00:10:14.447Z,1.60
2023-05-07T00:12:43.653Z,1.40
2023-05-07T00:15:13.178Z,1.70
2023-05-07T00:17:42.349Z,1.70
2023-05-07T00:20:12.529Z,1.35
2023-05-07T00:22:43.492Z,1.80
2023-05-07T00:25:12.584Z,1.60
2023-05-07T00:27:41.682Z,1.60
2023-05-07T00:30:12.022Z,1.40
2023-05-07T00:32:41.381Z,1.70
2023-05-07T00:35:11.511Z,1.55
2023-05-07T00:37:42.425Z,1.60
2023-05-07T00:40:12.483Z,1.40
2023-05-07T00:42:41.678Z,1.83
2023-05-07T00:45:12.710Z,1.50
2023-05-07T00:47:42.010Z,1.63
2023-05-07T00:50:14.734Z,1.75
2023-05-07T00:52:45.597Z,1.55
2023-05-07T00:55:16.384Z,1.40
2023-05-07T00:57:45.582Z,1.60
2023-05-07T01:00:15.752Z,1.75
2023-05-07T01:02:45.445Z,1.45
2023-05-07T01:05:17.014Z,1.45
2023-05-07T01:07:48.906Z,1.40
2023-05-07T01:10:18.035Z,1.25
2023-05-07T01:12:49.188Z,1.42
2023-05-07T01:15:18.967Z,1.60
2023-05-07T01:17:48.645Z,1.60
2023-05-07T01:20:17.739Z,1.60
2023-05-07T01:22:48.641Z,1.85
2023-05-07T01:25:18.265Z,1.83
2023-05-07T01:27:47.818Z,1.60
2023-05-07T01:30:17.476Z,1.50
2023-05-07T01:32:53.116Z,1.55
2023-05-07T01:35:24.821Z,1.60
2023-05-07T01:37:56.724Z,1.50
2023-05-07T01:40:26.701Z,1.63
2023-05-07T01:42:56.710Z,1.80
2023-05-07T01:45:26.016Z,1.60
2023-05-07T01:47:56.865Z,1.55
2023-05-07T01:50:27.402Z,1.60
2023-05-07T01:52:58.226Z,1.50
2023-05-07T01:55:27.339Z,1.70
2023-05-07T01:57:56.435Z,2.00
2023-05-07T02:00:25.936Z,1.90
2023-05-07T02:02:55.480Z,1.80
2023-05-07T02:05:24.558Z,1.63
2023-05-07T02:07:53.796Z,1.58
2023-05-07T02:10:24.616Z,1.77
2023-05-07T02:12:53.731Z,1.70
2023-05-07T02:15:22.843Z,1.70
2023-05-07T02:18:05.103Z,1.95
2023-05-07T02:20:34.395Z,1.95
2023-05-07T02:23:03.407Z,1.67
2023-05-07T02:25:34.043Z,1.67
2023-05-07T02:28:03.049Z,1.70
2023-05-07T02:30:32.051Z,2.28
2023-05-07T02:33:01.216Z,1.90
2023-05-07T02:35:30.252Z,1.80
2023-05-07T02:37:59.223Z,1.63
2023-05-07T02:40:30.805Z,1.55
2023-05-07T02:43:01.605Z,1.80
2023-05-07T02:45:30.665Z,1.70
2023-05-07T02:47:59.667Z,1.90
2023-05-07T02:50:28.958Z,2.00
2023-05-07T02:52:58.148Z,2.10
2023-05-07T02:55:27.148Z,2.03
2023-05-07T02:57:56.094Z,2.25
2023-05-07T03:00:27.341Z,1.92
2023-05-07T03:02:56.428Z,2.08
2023-05-07T03:05:25.454Z,1.95
2023-05-07T03:07:54.701Z,1.80
2023-05-07T03:10:23.633Z,2.15
2023-05-07T03:12:52.620Z,2.20
2023-05-07T03:15:22.268Z,2.03
2023-05-07T03:17:52.954Z,2.22
2023-05-07T03:20:22.191Z,1.90
2023-05-07T03:22:51.375Z,2.00
2023-05-07T03:25:20.402Z,2.30
2023-05-07T03:27:49.419Z,2.33
2023-05-07T03:30:18.427Z,2.30
2023-05-07T03:32:48.813Z,2.40
2023-05-07T03:35:19.587Z,2.25
2023-05-07T03:37:48.534Z,2.47
2023-05-07T03:40:17.709Z,2.35
2023-05-07T03:42:46.775Z,2.20
2023-05-07T03:45:15.752Z,2.38
2023-05-07T03:47:45.130Z,2.30
2023-05-07T03:50:14.322Z,2.38
2023-05-07T03:52:45.161Z,2.40
2023-05-07T03:55:14.207Z,2.53
2023-05-07T03:57:43.248Z,2.08
2023-05-07T04:00:13.642Z,2.42
2023-05-07T04:02:43.107Z,2.17
2023-05-07T04:05:12.277Z,2.50
2023-05-07T04:07:41.292Z,2.30
2023-05-07T04:10:13.050Z,2.30
2023-05-07T04:12:42.437Z,2.58
2023-05-07T04:15:12.224Z,2.33
2023-05-07T04:17:41.729Z,2.33
2023-05-07T04:20:12.668Z,2.20
2023-05-07T04:22:41.801Z,2.30
2023-05-07T04:25:12.950Z,2.38
2023-05-07T04:27:41.997Z,2.47
2023-05-07T04:30:12.032Z,2.60
2023-05-07T04:32:41.325Z,2.50
2023-05-07T04:35:11.007Z,2.35
2023-05-07T04:37:40.040Z,2.63
2023-05-07T04:40:12.213Z,2.30
2023-05-07T04:42:41.534Z,2.35
2023-05-07T04:45:12.188Z,2.60
2023-05-07T04:47:41.217Z,2.30
2023-05-07T04:50:11.136Z,2.28
2023-05-07T04:52:40.378Z,2.60
2023-05-07T04:55:11.917Z,2.45
2023-05-07T04:57:42.483Z,2.50
2023-05-07T05:00:12.334Z,2.30
2023-05-07T05:02:41.734Z,2.75
2023-05-07T05:05:11.289Z,2.45
2023-05-07T05:07:40.405Z,2.53
2023-05-07T05:10:10.021Z,2.67
2023-05-07T05:12:40.990Z,2.45
2023-05-07T05:15:12.230Z,2.40
2023-05-07T05:17:41.298Z,2.40
2023-05-07T05:20:12.786Z,2.50
2023-05-07T05:22:42.480Z,2.83
2023-05-07T05:25:11.698Z,2.33
2023-05-07T05:27:42.379Z,2.40
2023-05-07T05:30:12.536Z,2.70
2023-05-07T05:32:41.814Z,2.58
2023-05-07T05:35:11.366Z,2.75
2023-05-07T05:37:40.411Z,3.08
2023-05-07T05:40:10.594Z,2.38
2023-05-07T05:42:41.575Z,2.67
2023-05-07T05:45:11.730Z,2.50
2023-05-07T05:47:41.456Z,2.22
2023-05-07T05:50:11.375Z,2.60
2023-05-07T05:52:40.825Z,2.55
2023-05-07T05:55:10.818Z,2.70
2023-05-07T05:57:42.089Z,2.50
2023-05-07T06:00:13.796Z,2.65
2023-05-07T06:02:44.677Z,3.15
2023-05-07T06:05:13.802Z,2.95
2023-05-07T06:07:42.816Z,2.90
2023-05-07T06:10:12.678Z,2.53
2023-05-07T06:12:43.822Z,3.25
2023-05-07T06:15:13.800Z,2.65
2023-05-07T06:17:42.861Z,2.95
2023-05-07T06:20:12.664Z,2.67
2023-05-07T06:22:41.957Z,2.70
2023-05-07T06:25:11.710Z,3.05
2023-05-07T06:27:41.587Z,2.80
2023-05-07T06:30:13.201Z,3.10
2023-05-07T06:32:43.252Z,3.10
2023-05-07T06:35:12.346Z,2.72
2023-05-07T06:37:44.302Z,3.17
2023-05-07T06:40:14.156Z,2.80
2023-05-07T06:42:43.333Z,3.10
2023-05-07T06:45:14.699Z,3.25
2023-05-07T06:47:43.723Z,3.40
2023-05-07T06:50:13.113Z,3.40
2023-05-07T06:52:42.363Z,3.25
2023-05-07T06:55:13.090Z,3.15
2023-05-07T06:57:42.077Z,3.15
2023-05-07T07:00:14.743Z,3.40
2023-05-07T07:02:43.983Z,3.20
2023-05-07T07:05:13.290Z,3.05
2023-05-07T07:07:42.555Z,2.97
2023-05-07T07:10:12.425Z,3.20
2023-05-07T07:12:41.574Z,3.15
2023-05-07T07:15:13.122Z,3.10
2023-05-07T07:17:42.181Z,3.33
2023-05-07T07:20:12.592Z,3.25
2023-05-07T07:22:42.076Z,3.08
2023-05-07T07:25:12.838Z,3.13
2023-05-07T07:27:41.944Z,3.40
2023-05-07T07:30:13.488Z,3.22
2023-05-07T07:32:42.742Z,3.00
2023-05-07T07:35:12.182Z,2.97
2023-05-07T07:37:41.236Z,3.28
2023-05-07T07:40:11.690Z,3.00
2023-05-07T07:42:40.794Z,3.10
2023-05-07T07:45:10.822Z,2.80
2023-05-07T07:47:42.298Z,3.13
2023-05-07T07:50:14.833Z,3.13
2023-05-07T07:52:48.643Z,2.90
2023-05-07T07:55:22.945Z,3.22
2023-05-07T07:57:52.102Z,3.55
2023-05-07T08:00:21.624Z,3.38
2023-05-07T08:02:52.415Z,3.30
2023-05-07T08:05:21.725Z,2.97
2023-05-07T08:07:53.887Z,3.20
2023-05-07T08:10:23.698Z,3.13
2023-05-07T08:12:53.231Z,2.90
2023-05-07T08:15:22.576Z,3.55
2023-05-07T08:17:53.264Z,3.22
2023-05-07T08:20:22.546Z,3.50
2023-05-07T08:22:51.599Z,3.58
2023-05-07T08:25:20.755Z,2.95
2023-05-07T08:27:49.994Z,2.75
2023-05-07T08:30:19.216Z,3.20
2023-05-07T08:32:48.286Z,3.63
2023-05-07T08:35:19.000Z,2.65
2023-05-07T08:37:48.108Z,3.20
2023-05-07T08:40:17.295Z,3.00
2023-05-07T08:42:48.319Z,3.28
2023-05-07T08:45:18.712Z,3.00
2023-05-07T08:47:52.155Z,3.08
2023-05-07T08:50:24.326Z,3.38
2023-05-07T08:52:53.494Z,3.13
2023-05-07T08:55:23.236Z,3.00
2023-05-07T08:57:54.508Z,3.22
2023-05-07T09:00:23.675Z,3.53
2023-05-07T09:02:52.842Z,3.13
2023-05-07T09:05:24.018Z,3.08
2023-05-07T09:07:54.498Z,3.47
2023-05-07T09:10:24.056Z,3.47
2023-05-07T09:12:53.626Z,3.08
2023-05-07T09:15:23.219Z,3.20
2023-05-07T09:17:52.571Z,3.10
2023-05-07T09:20:23.430Z,3.10
2023-05-07T09:22:53.507Z,3.83
2023-05-07T09:25:30.950Z,3.00
2023-05-07T09:28:00.417Z,3.10
2023-05-07T09:30:31.599Z,3.30
2023-05-07T09:33:01.605Z,2.90
2023-05-07T09:35:32.702Z,2.90
2023-05-07T09:38:04.459Z,2.90
2023-05-07T09:40:33.926Z,3.05
2023-05-07T09:43:13.167Z,3.03
2023-05-07T09:45:43.141Z,3.13
2023-05-07T09:48:13.191Z,2.88
2023-05-07T09:50:50.556Z,2.90
2023-05-07T09:53:20.687Z,2.85
2023-05-07T09:55:50.305Z,3.00
2023-05-07T09:58:21.619Z,3.03
2023-05-07T10:00:51.722Z,3.00
2023-05-07T10:03:22.624Z,2.90
2023-05-07T10:05:53.960Z,3.08
2023-05-07T10:08:23.680Z,2.70
2023-05-07T10:10:52.694Z,2.90
2023-05-07T10:13:22.935Z,3.20
2023-05-07T10:15:52.453Z,2.90
2023-05-07T10:18:31.363Z,3.33
2023-05-07T10:21:09.892Z,2.92
2023-05-07T10:23:40.827Z,3.10
2023-05-07T10:26:11.894Z,2.95
2023-05-07T10:28:44.387Z,3.13
2023-05-07T10:31:32.341Z,3.30
2023-05-07T10:34:04.992Z,3.22
2023-05-07T10:36:38.347Z,2.90
2023-05-07T10:39:09.241Z,3.42
2023-05-07T10:41:38.839Z,3.50
2023-05-07T10:44:08.093Z,3.20
2023-05-07T10:46:37.221Z,2.95
2023-05-07T10:49:16.047Z,2.83
2023-05-07T10:51:48.841Z,3.13
2023-05-07T10:54:25.637Z,3.20
2023-05-07T10:56:54.627Z,3.35
2023-05-07T10:59:42.805Z,3.17
2023-05-07T11:02:13.115Z,3.10
2023-05-07T11:04:43.435Z,3.35
2023-05-07T11:07:34.920Z,2.90
2023-05-07T11:10:06.543Z,3.28
2023-05-07T11:12:55.763Z,3.17
2023-05-07T11:15:46.127Z,3.17
2023-05-07T11:18:16.432Z,3.35
2023-05-07T11:20:53.572Z,3.25
2023-05-07T11:24:01.170Z,3.00
2023-05-07T11:26:43.258Z,3.00
2023-05-07T11:29:14.524Z,2.95
2023-05-07T11:31:43.752Z,2.80
2023-05-07T11:34:14.127Z,3.28
2023-05-07T11:36:48.185Z,2.95
2023-05-07T11:39:34.608Z,3.00
2023-05-07T11:42:03.989Z,2.90
2023-05-07T11:44:46.314Z,3.20
2023-05-07T11:47:20.543Z,3.10
2023-05-07T11:49:50.677Z,3.17
2023-05-07T11:52:20.261Z,2.97
2023-05-07T11:54:54.764Z,2.88
2023-05-07T11:57:24.110Z,3.33
2023-05-07T11:59:56.006Z,3.10
2023-05-07T12:02:26.897Z,3.20
2023-05-07T12:04:56.759Z,3.13
2023-05-07T12:07:27.043Z,2.90
2023-05-07T12:09:57.861Z,3.30
2023-05-07T12:12:26.889Z,3.40
2023-05-07T12:14:55.896Z,3.50
2023-05-07T12:17:25.131Z,3.60
2023-05-07T12:19:55.265Z,3.10
2023-05-07T12:22:24.428Z,3.25
2023-05-07T12:25:02.019Z,3.45
2023-05-07T12:27:32.042Z,3.70
2023-05-07T12:30:01.256Z,3.10
2023-05-07T12:32:30.559Z,3.40
2023-05-07T12:34:59.702Z,3.42
2023-05-07T12:37:31.803Z,3.35
2023-05-07T12:40:11.220Z,3.03
2023-05-07T12:42:41.888Z,3.53
2023-05-07T12:45:12.202Z,3.80
2023-05-07T12:47:41.501Z,3.60
2023-05-07T12:50:10.998Z,3.15
2023-05-07T12:52:40.458Z,3.30
2023-05-07T12:55:14.530Z,2.95
2023-05-07T12:57:44.842Z,3.80
2023-05-07T13:00:14.854Z,3.53
2023-05-07T13:02:48.153Z,3.70
2023-05-07T13:05:17.275Z,3.30
2023-05-07T13:07:56.559Z,4.18
2023-05-07T13:10:27.948Z,3.78
2023-05-07T13:12:57.071Z,4.50
2023-05-07T13:15:26.233Z,3.75
2023-05-07T13:17:55.317Z,3.60
2023-05-07T13:20:24.551Z,4.32
2023-05-07T13:22:53.570Z,3.80
2023-05-07T13:25:22.570Z,3.72
2023-05-07T13:28:02.745Z,4.55
2023-05-07T13:30:39.034Z,3.72
2023-05-07T13:33:08.959Z,3.53
2023-05-07T13:35:38.090Z,3.55
2023-05-07T13:38:07.142Z,3.55
2023-05-07T13:40:36.260Z,3.30
2023-05-07T13:43:09.732Z,3.67
2023-05-07T13:45:38.949Z,3.90
2023-05-07T13:48:08.299Z,3.20
2023-05-07T13:50:37.505Z,3.30
2023-05-07T13:53:06.988Z,3.60
2023-05-07T13:55:36.207Z,3.55
2023-05-07T13:58:07.431Z,3.40
2023-05-07T14:00:37.193Z,3.42
2023-05-07T14:03:07.363Z,3.15
2023-05-07T14:05:36.914Z,3.10
2023-05-07T14:08:07.010Z,3.35
2023-05-07T14:10:36.796Z,3.25
2023-05-07T14:13:07.634Z,3.33
2023-05-07T14:15:36.711Z,3.22
2023-05-07T14:18:06.722Z,2.90
2023-05-07T14:20:38.438Z,2.80
2023-05-07T14:23:08.390Z,3.22
2023-05-07T14:25:37.355Z,2.80
2023-05-07T14:28:08.937Z,2.72
2023-05-07T14:30:38.115Z,2.55
2023-05-07T14:33:07.189Z,3.00
2023-05-07T14:35:36.461Z,2.70
2023-05-07T14:38:05.511Z,2.90
2023-05-07T14:40:34.630Z,2.97
2023-05-07T14:43:03.645Z,2.85
2023-05-07T14:45:34.260Z,2.80
2023-05-07T14:48:04.021Z,3.10
2023-05-07T14:50:33.103Z,2.95
2023-05-07T14:53:02.107Z,2.92
2023-05-07T14:55:32.816Z,3.25
2023-05-07T14:58:02.484Z,3.28
2023-05-07T15:00:31.639Z,3.40
2023-05-07T15:03:08.856Z,2.97
2023-05-07T15:05:38.372Z,2.95
2023-05-07T15:08:07.851Z,3.10
2023-05-07T15:10:44.805Z,2.95
2023-05-07T15:13:15.944Z,2.85
2023-05-07T15:15:48.460Z,2.30
2023-05-07T15:18:22.678Z,2.80
2023-05-07T15:20:52.204Z,3.05
2023-05-07T15:23:21.326Z,3.25
2023-05-07T15:25:52.183Z,2.88
2023-05-07T15:28:21.914Z,3.30
2023-05-07T15:30:51.003Z,3.05
2023-05-07T15:33:21.670Z,3.30
2023-05-07T15:35:50.940Z,3.40
2023-05-07T15:38:19.933Z,3.13
2023-05-07T15:40:49.038Z,3.63
2023-05-07T15:43:18.060Z,3.50
2023-05-07T15:45:47.502Z,3.40
2023-05-07T15:48:16.610Z,3.72
2023-05-07T15:50:47.529Z,3.63
2023-05-07T15:53:16.555Z,3.25
2023-05-07T15:55:46.607Z,3.05
2023-05-07T15:58:16.713Z,3.17
2023-05-07T16:00:46.096Z,3.30
2023-05-07T16:03:15.170Z,3.22
2023-05-07T16:05:44.373Z,3.10
2023-05-07T16:08:15.128Z,2.85
2023-05-07T16:10:44.144Z,3.20
2023-05-07T16:13:13.213Z,3.38
2023-05-07T16:15:42.921Z,3.33
2023-05-07T16:18:12.903Z,3.30
2023-05-07T16:20:42.593Z,2.70
2023-05-07T16:23:11.855Z,3.17
2023-05-07T16:25:42.514Z,2.80
2023-05-07T16:28:12.139Z,2.85
2023-05-07T16:30:41.246Z,2.92
2023-05-07T16:33:10.455Z,2.78
2023-05-07T16:35:39.558Z,3.15
2023-05-07T16:38:12.369Z,2.90
2023-05-07T16:40:43.606Z,2.78
2023-05-07T16:43:12.651Z,3.20
2023-05-07T16:45:41.647Z,3.00
2023-05-07T16:48:10.778Z,2.88
2023-05-07T16:50:39.898Z,3.58
2023-05-07T16:53:08.949Z,2.53
2023-05-07T16:55:40.166Z,3.25
2023-05-07T16:58:12.489Z,2.90
2023-05-07T17:00:50.676Z,2.42
2023-05-07T17:03:20.450Z,2.92
2023-05-07T17:05:49.595Z,2.50
2023-05-07T17:08:18.633Z,2.30
2023-05-07T17:10:47.605Z,2.50
2023-05-07T17:13:18.371Z,2.30
2023-05-07T17:15:48.481Z,2.60
2023-05-07T17:18:17.564Z,2.30
2023-05-07T17:20:46.524Z,2.20
2023-05-07T17:23:16.270Z,2.33
2023-05-07T17:25:49.616Z,2.47
2023-05-07T17:28:20.325Z,2.03
2023-05-07T17:30:49.783Z,2.20
2023-05-07T17:33:21.537Z,2.38
2023-05-07T17:35:51.292Z,2.42
2023-05-07T17:38:20.288Z,2.40
2023-05-07T17:40:49.920Z,2.10
2023-05-07T17:43:20.890Z,2.40
2023-05-07T17:45:50.216Z,2.30
2023-05-07T17:48:19.634Z,2.30
2023-05-07T17:50:48.729Z,2.20
2023-05-07T17:53:17.780Z,2.40
2023-05-07T17:55:47.422Z,2.63
2023-05-07T17:58:16.852Z,2.22
2023-05-07T18:00:47.577Z,2.38
2023-05-07T18:03:16.652Z,2.38
2023-05-07T18:05:45.849Z,2.20
2023-05-07T18:08:15.097Z,2.58
2023-05-07T18:10:44.144Z,2.60
2023-05-07T18:13:13.272Z,2.60
2023-05-07T18:15:42.387Z,2.40
2023-05-07T18:18:13.659Z,2.30
2023-05-07T18:20:42.709Z,1.90
2023-05-07T18:23:11.795Z,2.05
2023-05-07T18:25:40.876Z,2.50
2023-05-07T18:28:09.862Z,2.17
2023-05-07T18:30:38.829Z,2.40
2023-05-07T18:33:08.604Z,2.42
2023-05-07T18:35:40.089Z,2.30
2023-05-07T18:38:09.106Z,2.10
2023-05-07T18:40:38.191Z,2.35
2023-05-07T18:43:07.729Z,2.92
2023-05-07T18:45:37.224Z,3.53
2023-05-07T18:48:07.645Z,2.90
2023-05-07T18:50:36.850Z,2.60
2023-05-07T18:53:07.496Z,2.47
2023-05-07T18:55:36.771Z,2.33
2023-05-07T18:58:05.798Z,2.70
2023-05-07T19:00:34.837Z,2.90
2023-05-07T19:03:06.722Z,2.60
2023-05-07T19:05:35.771Z,2.90
2023-05-07T19:08:04.856Z,2.80
2023-05-07T19:10:35.666Z,3.00
2023-05-07T19:13:04.920Z,3.35
2023-05-07T19:15:33.969Z,2.90
2023-05-07T19:18:03.085Z,3.13
2023-05-07T19:20:32.237Z,3.38
2023-05-07T19:23:01.322Z,3.00
2023-05-07T19:25:30.377Z,3.30
2023-05-07T19:28:01.056Z,3.20
2023-05-07T19:30:30.153Z,3.13
2023-05-07T19:33:02.204Z,3.70
2023-05-07T19:35:32.264Z,3.30
2023-05-07T19:38:01.311Z,3.80
2023-05-07T19:40:30.360Z,2.70
2023-05-07T19:43:01.481Z,3.00
2023-05-07T19:45:30.590Z,4.82
2023-05-07T19:47:59.666Z,3.50
2023-05-07T19:50:29.399Z,3.38
2023-05-07T19:52:59.600Z,2.78
2023-05-07T19:55:28.600Z,2.95
2023-05-07T19:57:57.707Z,3.47
2023-05-07T20:00:32.447Z,3.50
2023-05-07T20:03:01.658Z,3.05
2023-05-07T20:05:30.979Z,2.90
2023-05-07T20:08:01.088Z,3.40
2023-05-07T20:10:30.157Z,3.60
2023-05-07T20:12:59.190Z,3.03
2023-05-07T20:15:29.849Z,3.30
2023-05-07T20:17:58.880Z,3.55
2023-05-07T20:20:27.987Z,3.10
2023-05-07T20:22:57.225Z,3.42
2023-05-07T20:25:26.460Z,3.20
2023-05-07T20:27:55.474Z,3.28
2023-05-07T20:30:25.520Z,3.85
2023-05-07T20:32:56.257Z,3.60
2023-05-07T20:35:25.437Z,3.63
2023-05-07T20:37:54.491Z,3.20
2023-05-07T20:40:23.570Z,3.58
2023-05-07T20:42:52.717Z,2.92
2023-05-07T20:45:22.379Z,3.40
2023-05-07T20:47:51.478Z,3.50
2023-05-07T20:50:24.518Z,3.70
2023-05-07T20:52:53.510Z,3.40
2023-05-07T20:55:22.530Z,3.33
2023-05-07T20:57:51.796Z,3.38
2023-05-07T21:00:21.170Z,3.30
2023-05-07T21:02:50.761Z,3.15
2023-05-07T21:05:21.742Z,3.70
2023-05-07T21:07:50.746Z,3.35
2023-05-07T21:10:19.783Z,3.75
2023-05-07T21:12:48.860Z,3.35
2023-05-07T21:15:17.989Z,3.38
2023-05-07T21:17:47.055Z,3.30
2023-05-07T21:20:16.400Z,3.30
2023-05-07T21:22:47.160Z,3.22
2023-05-07T21:25:16.506Z,3.17
2023-05-07T21:27:45.537Z,3.60
2023-05-07T21:30:15.884Z,3.75
2023-05-07T21:32:44.872Z,3.40
2023-05-07T21:35:14.018Z,3.75
2023-05-07T21:37:43.129Z,3.10
2023-05-07T21:40:14.865Z,2.53
2023-05-07T21:42:44.111Z,2.70
2023-05-07T21:45:14.119Z,2.50
2023-05-07T21:47:43.153Z,2.63
2023-05-07T21:50:13.707Z,2.83
2023-05-07T21:52:43.448Z,2.38
2023-05-07T21:55:14.486Z,2.60
2023-05-07T21:58:01.377Z,2.22
2023-05-07T22:00:36.109Z,2.42
2023-05-07T22:03:07.864Z,2.70
2023-05-07T22:05:37.030Z,2.40
2023-05-07T22:08:06.708Z,2.97
2023-05-07T22:10:37.842Z,2.53
2023-05-07T22:13:07.094Z,2.35
2023-05-07T22:15:45.517Z,2.30
2023-05-07T22:18:22.673Z,2.90
2023-05-07T22:20:53.164Z,2.30
2023-05-07T22:23:22.310Z,2.40
2023-05-07T22:25:55.753Z,2.88
2023-05-07T22:28:24.954Z,2.30
2023-05-07T22:30:54.040Z,2.50
2023-05-07T22:33:23.159Z,2.28
2023-05-07T22:35:54.651Z,2.35
2023-05-07T22:38:23.832Z,2.70
2023-05-07T22:40:54.572Z,2.33
2023-05-07T22:43:23.774Z,2.78
2023-05-07T22:46:01.289Z,2.45
2023-05-07T22:48:31.007Z,2.35
2023-05-07T22:51:03.043Z,2.50
2023-05-07T22:53:32.398Z,2.22
2023-05-07T22:56:07.065Z,2.70
2023-05-07T22:58:36.489Z,2.50
2023-05-07T23:01:12.498Z,2.45
2023-05-07T23:03:42.039Z,2.83
2023-05-07T23:06:11.495Z,2.50
2023-05-07T23:08:40.998Z,2.60
2023-05-07T23:11:11.890Z,2.33
2023-05-07T23:13:40.857Z,2.13
2023-05-07T23:16:10.093Z,2.17
2023-05-07T23:18:39.169Z,2.20
2023-05-07T23:21:08.233Z,2.10
2023-05-07T23:23:37.344Z,2.17
2023-05-07T23:26:06.382Z,2.20
2023-05-07T23:28:37.072Z,2.03
2023-05-07T23:31:08.754Z,2.08
2023-05-07T23:33:38.587Z,2.10
2023-05-07T23:36:09.191Z,1.98
2023-05-07T23:38:38.256Z,2.22
2023-05-07T23:41:07.312Z,2.00
2023-05-07T23:43:38.108Z,2.05
2023-05-07T23:46:07.340Z,2.03
2023-05-07T23:48:36.462Z,2.20
2023-05-07T23:51:05.549Z,2.10
2023-05-07T23:53:34.632Z,1.90
2023-05-07T23:56:03.635Z,1.90
2023-05-07T23:58:32.644Z,1.90
